Time;durP1;ratioP1;P1;durP2;ratioP2;P2;SDS_P1;SDS_P2;PMS_P1;PMS_P2;Temp;Humidity;BMP_temperature;BMP_pressure;BME280_temperature;BME280_humidity;BME280_pressure;Samples;Min_cycle;Max_cycle;Signal;HPM_P1;HPM_P2
2022/01/23 00:02:14;;;;;;;;;;;;;;;-3.62;68.81;101504.56;5087748;28;19916;-67
2022/01/23 00:04:39;;;;;;;;;;;;;;;-3.59;69.09;101512.41;5101089;28;19916;-66
2022/01/23 00:07:08;;;;;;;;;;;;;;;-3.53;69.51;101516.69;5078977;28;19922;-67
2022/01/23 00:09:33;;;;;;;;;;;;;;;-3.55;70.29;101511.47;5107840;28;19911;-69
2022/01/23 00:12:03;;;;;;;;;;;;;;;-3.54;69.94;101512.34;5107922;28;20021;-68
2022/01/23 00:17:35;;;;;;;;;;;;;;;-3.52;69.02;101510.59;5030278;28;19991;-68
2022/01/23 00:20:05;;;;;;;;;;;;;;;-3.52;69.69;101498.31;5081485;28;19924;-68
2022/01/23 00:22:50;;;;;;;;;;;;;;;-3.55;70.22;101506.22;5108151;28;19911;-68
2022/01/23 00:30:46;;;;;;;;;;;;;;;-3.61;69.67;101500.22;5098620;28;19919;-66
2022/01/23 00:33:11;;;;;;;;;;;;;;;-3.61;70.53;101493.19;5088332;28;19916;-66
2022/01/23 00:35:38;;;;;;;;;;;;;;;-3.57;71.06;101494.03;5098550;28;19908;-67
2022/01/23 00:38:04;;;;;;;;;;;;;;;-3.59;71.04;101496.66;5106670;28;19922;-67
2022/01/23 00:40:31;;;;;;;;;;;;;;;-3.58;70.69;101498.41;5102069;28;19916;-66
2022/01/23 00:43:00;;;;;;;;;;;;;;;-3.63;69.90;101499.34;5111890;28;19918;-66
2022/01/23 00:45:29;;;;;;;;;;;;;;;-3.69;69.35;101492.44;5103365;28;20364;-67
2022/01/23 00:47:59;;;;;;;;;;;;;;;-3.74;69.21;101509.94;5093007;28;19911;-67
2022/01/23 00:50:25;;;;;;;;;;;;;;;-3.78;69.72;101505.63;5101594;28;19916;-67
2022/01/23 00:52:50;;;;;;;;;;;;;;;-3.77;70.08;101509.97;5107636;28;20034;-66
2022/01/23 00:55:16;;;;;;;;;;;;;;;-3.80;69.54;101523.13;5085230;28;19915;-68
2022/01/23 00:57:42;;;;;;;;;;;;;;;-3.88;69.48;101506.59;5106420;28;19926;-68
2022/01/23 01:00:08;;;;;;;;;;;;;;;-3.90;69.82;101508.38;5099937;28;19924;-68
2022/01/23 01:02:33;;;;;;;;;;;;;;;-3.98;70.31;101497.13;5107824;28;19939;-68
2022/01/23 01:04:59;;;;;;;;;;;;;;;-3.92;70.83;101509.28;5107010;28;19926;-68
2022/01/23 01:07:24;;;;;;;;;;;;;;;-3.90;71.18;101513.59;5106795;28;19922;-68
2022/01/23 01:09:52;;;;;;;;;;;;;;;-3.91;71.69;101511.88;5100148;28;19946;-66
2022/01/23 01:12:23;;;;;;;;;;;;;;;-3.90;71.82;101503.13;5102329;28;20085;-67
2022/01/23 01:31:27;;;;;;;;;;;;;;;-3.86;72.19;101510.09;5102149;28;19981;-68
2022/01/23 01:34:13;;;;;;;;;;;;;;;-3.84;72.12;101513.53;5103181;28;20356;-68
2022/01/23 01:36:47;;;;;;;;;;;;;;;-3.79;71.99;101505.63;5106472;28;19916;-68
2022/01/23 01:39:14;;;;;;;;;;;;;;;-3.84;72.52;101516.16;5108527;28;20030;-68
2022/01/23 01:41:40;;;;;;;;;;;;;;;-3.87;72.71;101507.50;5108611;28;19919;-68
2022/01/23 01:44:06;;;;;;;;;;;;;;;-3.85;72.87;101506.59;5107147;28;19984;-68
2022/01/23 01:46:31;;;;;;;;;;;;;;;-3.87;72.67;101492.63;5091379;28;19916;-68
2022/01/23 01:48:57;;;;;;;;;;;;;;;-3.89;72.85;101493.53;5108202;28;20006;-68
2022/01/23 01:51:23;;;;;;;;;;;;;;;-3.87;72.36;101502.25;5104999;28;20552;-67
2022/01/23 01:53:52;;;;;;;;;;;;;;;-3.90;72.83;101500.50;5104024;28;19980;-66
2022/01/23 01:56:18;;;;;;;;;;;;;;;-3.88;72.92;101506.59;5078311;28;19915;-67
2022/01/23 02:09:58;;;;;;;;;;;;;;;-4.00;72.29;101505.88;5101580;28;19968;-66
2022/01/23 02:55:09;;;;;;;;;;;;;;;-4.20;72.94;101489.50;5100047;28;19939;-67
2022/01/23 03:00:10;;;;;;;;;;;;;;;-4.24;73.19;101480.78;5105739;28;20319;-67
2022/01/23 03:02:41;;;;;;;;;;;;;;;-4.27;73.64;101488.66;5086431;28;20505;-67
2022/01/23 03:05:12;;;;;;;;;;;;;;;-4.29;73.63;101481.72;5104788;28;19911;-67
2022/01/23 03:07:54;;;;;;;;;;;;;;;-4.32;72.91;101485.22;5112646;28;19912;-67
2022/01/23 03:10:26;;;;;;;;;;;;;;;-4.27;72.99;101482.56;5107129;28;19922;-67
2022/01/23 03:13:44;;;;;;;;;;;;;;;-4.26;73.45;101495.63;5102302;28;19916;-67
2022/01/23 03:26:48;;;;;;;;;;;;;;;-4.41;74.17;101479.19;5105923;28;20387;-67
2022/01/23 03:29:20;;;;;;;;;;;;;;;-4.45;74.09;101474.88;5101597;28;20425;-67
2022/01/23 03:34:18;;;;;;;;;;;;;;;-4.50;73.77;101476.66;5105385;28;20336;-66
2022/01/23 03:36:44;;;;;;;;;;;;;;;-4.47;73.80;101487.97;5103980;28;19964;-65
2022/01/23 03:39:10;;;;;;;;;;;;;;;-4.54;74.75;101485.41;5106899;28;19920;-65
2022/01/23 03:41:36;;;;;;;;;;;;;;;-4.50;74.12;101501.09;5094804;28;19916;-67
2022/01/23 03:44:04;;;;;;;;;;;;;;;-4.56;74.52;101492.41;5108637;28;19947;-67
2022/01/23 03:51:45;;;;;;;;;;;;;;;-4.52;73.90;101499.38;5108270;28;19961;-67
2022/01/23 03:54:10;;;;;;;;;;;;;;;-4.51;74.55;101488.00;5106195;28;20412;-67
2022/01/23 03:56:36;;;;;;;;;;;;;;;-4.54;73.99;101490.66;5110323;28;20374;-67
2022/01/23 03:59:01;;;;;;;;;;;;;;;-4.45;74.36;101488.81;5113351;28;19958;-67
2022/01/23 04:01:26;;;;;;;;;;;;;;;-4.46;73.59;101508.03;5101835;28;19919;-67
2022/01/23 04:03:55;;;;;;;;;;;;;;;-4.56;73.79;101492.41;5083230;28;19912;-65
2022/01/23 04:06:21;;;;;;;;;;;;;;;-4.57;74.49;101488.94;5102828;28;19911;-65
2022/01/23 04:08:48;;;;;;;;;;;;;;;-4.58;74.31;101494.19;5085792;28;19919;-67
2022/01/23 04:11:13;;;;;;;;;;;;;;;-4.62;74.24;101502.94;5102086;28;19916;-67
2022/01/23 04:13:52;;;;;;;;;;;;;;;-4.68;74.81;101509.94;5091881;28;20014;-67
2022/01/23 04:19:36;;;;;;;;;;;;;;;-4.75;74.79;101499.53;5104632;28;19916;-67
2022/01/23 04:45:17;;;;;;;;;;;;;;;-5.06;74.18;101500.63;5108758;28;19961;-65
2022/01/23 04:47:11;;;;;;;;;;;;;;;-5.07;76.07;101504.09;5092632;28;19923;-65
2022/01/23 05:00:31;;;;;;;;;;;;;;;-5.03;77.15;101514.53;5103493;28;19938;-65
2022/01/23 05:03:47;;;;;;;;;;;;;;;-5.06;76.52;101521.56;5092037;28;19926;-65
2022/01/23 05:05:58;;;;;;;;;;;;;;;-5.10;76.01;101522.41;5100807;28;19942;-65
2022/01/23 05:08:23;;;;;;;;;;;;;;;-5.16;76.44;101505.03;5110356;28;19911;-65
2022/01/23 05:10:49;;;;;;;;;;;;;;;-5.18;76.97;101505.91;5087836;28;19920;-65
2022/01/23 05:13:14;;;;;;;;;;;;;;;-5.17;75.99;101511.13;5106133;28;19919;-65
2022/01/23 05:15:40;;;;;;;;;;;;;;;-5.21;75.46;101511.16;5087123;28;19927;-65
2022/01/23 05:18:05;;;;;;;;;;;;;;;-5.22;75.70;101515.50;5094477;28;19939;-65
2022/01/23 05:20:31;;;;;;;;;;;;;;;-5.23;76.14;101515.50;5096020;28;19916;-67
2022/01/23 05:23:03;;;;;;;;;;;;;;;-5.28;75.19;101510.34;5099267;27;20011;-67
2022/01/23 05:25:31;;;;;;;;;;;;;;;-5.28;74.89;101520.78;5103024;28;19919;-66
2022/01/23 05:27:56;;;;;;;;;;;;;;;-5.32;74.78;101512.97;5109638;28;19916;-67
2022/01/23 05:30:23;;;;;;;;;;;;;;;-5.37;75.70;101517.34;5109545;28;19918;-67
2022/01/23 05:32:48;;;;;;;;;;;;;;;-5.40;75.25;101522.56;5109936;28;19915;-67
2022/01/23 05:35:16;;;;;;;;;;;;;;;-5.44;74.88;101526.09;5103067;28;19965;-67
2022/01/23 05:37:42;;;;;;;;;;;;;;;-5.43;75.15;101527.81;5097019;28;20038;-67
2022/01/23 05:40:10;;;;;;;;;;;;;;;-5.47;75.67;101526.09;5105807;28;20840;-67
2022/01/23 05:42:35;;;;;;;;;;;;;;;-5.52;75.47;101526.09;5106391;28;19916;-67
2022/01/23 05:45:00;;;;;;;;;;;;;;;-5.61;75.08;101528.75;5107622;28;19911;-67
2022/01/23 05:47:25;;;;;;;;;;;;;;;-5.62;75.25;101527.00;5097752;28;20332;-67
2022/01/23 05:49:51;;;;;;;;;;;;;;;-5.65;75.40;101528.75;5098113;28;20010;-67
2022/01/23 05:52:16;;;;;;;;;;;;;;;-5.69;75.16;101538.38;5092928;28;19923;-65
2022/01/23 05:54:41;;;;;;;;;;;;;;;-5.71;75.08;101529.66;5084769;28;20429;-65
2022/01/23 05:57:07;;;;;;;;;;;;;;;-5.74;74.78;101536.66;5102778;28;20388;-66
2022/01/23 05:59:32;;;;;;;;;;;;;;;-5.75;74.75;101534.88;5102062;28;19923;-66
2022/01/23 06:01:57;;;;;;;;;;;;;;;-5.82;74.53;101531.47;5097453;28;20284;-67
2022/01/23 06:04:24;;;;;;;;;;;;;;;-5.85;74.18;101536.69;5102186;28;19912;-65
2022/01/23 06:06:50;;;;;;;;;;;;;;;-5.91;74.39;101536.69;5095184;28;20675;-66
2022/01/23 06:09:16;;;;;;;;;;;;;;;-5.96;74.39;101534.97;5098662;28;19968;-66
2022/01/23 06:11:41;;;;;;;;;;;;;;;-5.95;75.25;101544.53;5105848;28;19938;-66
2022/01/23 06:14:08;;;;;;;;;;;;;;;-6.03;75.80;101547.16;5107031;28;19923;-66
2022/01/23 06:16:34;;;;;;;;;;;;;;;-6.02;75.86;101553.25;5106575;28;19919;-68
2022/01/23 06:18:59;;;;;;;;;;;;;;;-6.05;75.28;101553.25;5106424;28;20284;-66
2022/01/23 06:21:26;;;;;;;;;;;;;;;-6.08;75.39;101554.16;5090414;28;19915;-66
2022/01/23 06:24:01;;;;;;;;;;;;;;;-6.07;75.14;101557.59;5092993;28;19918;-66
2022/01/23 06:26:32;;;;;;;;;;;;;;;-6.07;75.46;101566.31;5090588;28;19911;-66
2022/01/23 06:29:01;;;;;;;;;;;;;;;-6.07;75.89;101570.66;5099878;28;19995;-66
2022/01/23 06:31:26;;;;;;;;;;;;;;;-6.10;75.51;101568.09;5104314;28;20394;-66
2022/01/23 06:33:52;;;;;;;;;;;;;;;-6.11;75.64;101579.38;5097281;28;19945;-66
2022/01/23 06:36:17;;;;;;;;;;;;;;;-6.14;75.17;101581.97;5098621;28;19915;-66
2022/01/23 06:38:42;;;;;;;;;;;;;;;-6.16;74.94;101586.34;5108045;28;19927;-68
2022/01/23 06:41:08;;;;;;;;;;;;;;;-6.14;74.38;101605.47;5109781;28;22378;-68
2022/01/23 06:43:33;;;;;;;;;;;;;;;-6.22;74.46;101589.84;5111243;28;19998;-68
2022/01/23 06:45:58;;;;;;;;;;;;;;;-6.24;74.86;101593.28;5105282;28;19915;-68
2022/01/23 06:48:24;;;;;;;;;;;;;;;-6.23;75.27;101595.06;5092096;28;19919;-66
2022/01/23 06:50:50;;;;;;;;;;;;;;;-6.24;75.38;101591.56;5093962;28;19923;-66
2022/01/23 06:53:15;;;;;;;;;;;;;;;-6.23;76.14;101589.84;5097487;28;19916;-66
2022/01/23 06:55:40;;;;;;;;;;;;;;;-6.19;76.66;101592.41;5109528;28;19919;-66
2022/01/23 06:58:06;;;;;;;;;;;;;;;-6.11;77.41;101600.25;5096348;28;19908;-66
2022/01/23 07:00:33;;;;;;;;;;;;;;;-6.07;78.08;101595.03;5103646;27;20307;-67
2022/01/23 07:02:58;;;;;;;;;;;;;;;-6.03;78.98;101586.31;5108301;28;19918;-66
2022/01/23 07:05:23;;;;;;;;;;;;;;;-5.94;80.24;101578.50;5097690;28;19919;-67
2022/01/23 07:07:49;;;;;;;;;;;;;;;-5.83;81.15;101581.09;5107992;27;19915;-66
2022/01/23 07:10:16;;;;;;;;;;;;;;;-5.72;82.24;101595.84;5101849;27;19975;-66
2022/01/23 07:12:42;;;;;;;;;;;;;;;-5.59;83.61;101591.44;5095772;28;20395;-66
2022/01/23 07:15:08;;;;;;;;;;;;;;;-5.45;84.23;101594.91;5107956;27;19995;-66
2022/01/23 07:17:37;;;;;;;;;;;;;;;-5.26;84.43;101601.78;5098680;28;19995;-66
2022/01/23 07:20:03;;;;;;;;;;;;;;;-5.11;85.33;101597.41;5078924;28;20283;-66
2022/01/23 07:22:28;;;;;;;;;;;;;;;-4.98;85.82;101599.09;5105783;28;19912;-68
2022/01/23 07:24:55;;;;;;;;;;;;;;;-4.79;85.81;101599.84;5111570;28;19911;-68
2022/01/23 07:27:22;;;;;;;;;;;;;;;-4.60;86.39;101596.25;5087738;28;20014;-68
2022/01/23 07:29:48;;;;;;;;;;;;;;;-4.45;86.08;101590.91;5087111;28;19923;-69
2022/01/23 07:32:13;;;;;;;;;;;;;;;-4.25;86.72;101601.25;5107559;28;19926;-69
2022/01/23 07:34:38;;;;;;;;;;;;;;;-4.08;86.26;101599.38;5092912;28;20304;-69
2022/01/23 07:37:04;;;;;;;;;;;;;;;-3.90;86.14;101592.22;5101762;28;19926;-69
2022/01/23 07:39:29;;;;;;;;;;;;;;;-3.74;86.13;101585.94;5092541;28;19920;-69
2022/01/23 07:41:55;;;;;;;;;;;;;;;-3.55;84.67;101587.50;5105687;28;20277;-68
2022/01/23 07:44:20;;;;;;;;;;;;;;;-3.36;84.27;101591.66;5104295;27;19911;-69
2022/01/23 07:46:45;;;;;;;;;;;;;;;-3.17;83.91;101593.19;5101364;27;19919;-69
2022/01/23 07:49:11;;;;;;;;;;;;;;;-2.97;82.78;101593.81;5099990;28;19919;-69
2022/01/23 07:51:36;;;;;;;;;;;;;;;-2.81;82.19;101587.47;5100594;28;19924;-69
2022/01/23 07:54:02;;;;;;;;;;;;;;;-2.61;81.56;101588.06;5101838;28;19920;-69
2022/01/23 07:56:27;;;;;;;;;;;;;;;-2.45;80.60;101581.69;5105537;28;19912;-69
2022/01/23 07:58:53;;;;;;;;;;;;;;;-2.24;79.22;101588.38;5104309;28;19976;-68
2022/01/23 08:01:18;;;;;;;;;;;;;;;-2.08;77.82;101583.75;5099928;28;19912;-70
2022/01/23 08:03:43;;;;;;;;;;;;;;;-1.89;76.98;101587.81;5102996;28;19955;-69
2022/01/23 08:06:11;;;;;;;;;;;;;;;-1.71;75.88;101590.97;5100507;28;20427;-69
2022/01/23 08:08:37;;;;;;;;;;;;;;;-1.58;75.05;101587.22;5104271;28;19918;-70
2022/01/23 08:11:02;;;;;;;;;;;;;;;-1.41;74.28;101603.59;5100991;28;19911;-70
2022/01/23 08:13:27;;;;;;;;;;;;;;;-1.27;73.22;101600.69;5090752;28;19923;-70
2022/01/23 08:15:53;;;;;;;;;;;;;;;-1.15;72.13;101589.91;5110263;28;19955;-67
2022/01/23 08:18:18;;;;;;;;;;;;;;;-0.97;71.59;101589.56;5105181;28;19912;-67
2022/01/23 08:20:43;;;;;;;;;;;;;;;-0.75;69.92;101590.81;5101911;28;19916;-66
2022/01/23 08:23:09;;;;;;;;;;;;;;;-0.58;69.14;101578.16;5105651;28;19912;-68
2022/01/23 08:25:34;;;;;;;;;;;;;;;-0.42;68.20;101583.03;5100897;27;19920;-67
2022/01/23 08:28:01;;;;;;;;;;;;;;;-0.20;66.99;101586.03;5094340;27;20372;-70
2022/01/23 08:30:26;;;;;;;;;;;;;;;-0.07;66.28;101582.19;5101515;27;20698;-69
2022/01/23 08:32:52;;;;;;;;;;;;;;;0.06;66.00;101583.63;5109622;27;19918;-69
2022/01/23 08:35:17;;;;;;;;;;;;;;;0.16;65.30;101579.84;5102157;27;19955;-69
2022/01/23 08:37:43;;;;;;;;;;;;;;;0.31;65.08;101575.94;5082844;28;20010;-69
2022/01/23 08:40:18;;;;;;;;;;;;;;;0.43;64.90;101575.66;5084901;28;20273;-70
2022/01/23 08:42:43;;;;;;;;;;;;;;;0.58;63.73;101584.00;5085452;28;19911;-68
2022/01/23 08:45:08;;;;;;;;;;;;;;;0.74;62.49;101589.75;5087175;28;20371;-68
2022/01/23 08:47:34;;;;;;;;;;;;;;;0.87;61.78;101594.63;5099872;28;20015;-69
2022/01/23 08:49:59;;;;;;;;;;;;;;;0.86;62.50;101597.31;5104595;28;19984;-69
2022/01/23 08:52:25;;;;;;;;;;;;;;;0.89;63.76;101600.75;5103155;28;20906;-68
2022/01/23 08:54:51;;;;;;;;;;;;;;;0.96;62.99;101601.44;5088372;28;19999;-68
2022/01/23 08:57:17;;;;;;;;;;;;;;;1.06;61.98;101605.56;5079857;28;19920;-66
2022/01/23 08:59:43;;;;;;;;;;;;;;;1.12;61.42;101602.72;5066958;28;19932;-66
2022/01/23 09:02:09;;;;;;;;;;;;;;;1.18;61.10;101606.06;5065209;28;20524;-66
2022/01/23 09:04:35;;;;;;;;;;;;;;;1.23;60.89;101612.06;5091435;28;19915;-68
2022/01/23 09:07:00;;;;;;;;;;;;;;;1.34;60.58;101611.75;5100463;28;19961;-67
2022/01/23 09:09:30;;;;;;;;;;;;;;;1.32;59.86;101603.03;5099152;28;20382;-68
2022/01/23 09:14:47;;;;;;;;;;;;;;;1.37;59.17;101609.03;5058089;28;19935;-68
2022/01/23 09:17:16;;;;;;;;;;;;;;;1.41;58.56;101624.75;5072774;28;19915;-66
2022/01/23 09:19:45;;;;;;;;;;;;;;;1.41;58.50;101623.88;5120319;27;19919;-70
2022/01/23 09:22:10;;;;;;;;;;;;;;;1.45;59.15;101628.19;5104405;28;19933;-69
2022/01/23 09:24:36;;;;;;;;;;;;;;;1.52;59.04;101630.56;5112766;28;19916;-70
2022/01/23 09:27:06;;;;;;;;;;;;;;;1.51;58.50;101627.97;5106706;28;20291;-70
2022/01/23 09:29:35;;;;;;;;;;;;;;;1.58;58.66;101630.41;5110726;28;19922;-70
2022/01/23 09:32:01;;;;;;;;;;;;;;;1.68;57.93;101628.34;5103836;28;19934;-69
2022/01/23 09:34:27;;;;;;;;;;;;;;;1.73;57.16;101640.50;5112801;28;19912;-69
2022/01/23 09:36:54;;;;;;;;;;;;;;;1.70;57.69;101639.72;5107095;28;20002;-69
2022/01/23 09:39:20;;;;;;;;;;;;;;;1.72;57.64;101637.91;5102141;28;20003;-70
2022/01/23 09:41:50;;;;;;;;;;;;;;;1.73;56.32;101639.63;5107592;28;20018;-69
2022/01/23 09:44:17;;;;;;;;;;;;;;;1.67;57.54;101651.28;5108346;28;19912;-69
2022/01/23 09:46:44;;;;;;;;;;;;;;;1.66;57.28;101632.81;5103981;28;19916;-70
2022/01/23 09:49:13;;;;;;;;;;;;;;;1.69;56.82;101643.28;5100281;28;19917;-70
2022/01/23 09:51:42;;;;;;;;;;;;;;;1.71;57.73;101652.06;5094491;28;19935;-70
2022/01/23 09:54:11;;;;;;;;;;;;;;;1.72;57.74;101643.22;5122609;28;19950;-70
2022/01/23 09:56:37;;;;;;;;;;;;;;;1.76;57.19;101636.91;5093465;28;19970;-70
2022/01/23 09:59:02;;;;;;;;;;;;;;;1.81;55.96;101625.25;5104395;28;19919;-68
2022/01/23 10:01:28;;;;;;;;;;;;;;;1.87;55.29;101608.38;5111485;28;19946;-67
2022/01/23 10:03:54;;;;;;;;;;;;;;;1.84;55.04;101605.81;5110332;28;19908;-68
2022/01/23 10:06:19;;;;;;;;;;;;;;;1.83;56.22;101602.28;5091098;28;19912;-67
2022/01/23 10:08:46;;;;;;;;;;;;;;;1.84;56.07;101605.81;5091637;28;19918;-68
2022/01/23 10:11:13;;;;;;;;;;;;;;;1.85;56.06;101604.88;5099771;28;20014;-68
2022/01/23 10:13:42;;;;;;;;;;;;;;;1.89;55.53;101604.75;5113683;28;19946;-68
2022/01/23 10:16:07;;;;;;;;;;;;;;;2.00;54.89;101589.38;5115446;28;20010;-67
2022/01/23 10:18:33;;;;;;;;;;;;;;;2.01;55.38;101599.06;5113661;28;20423;-68
2022/01/23 10:20:59;;;;;;;;;;;;;;;2.04;55.21;101600.75;5080766;28;20002;-68
2022/01/23 10:23:24;;;;;;;;;;;;;;;2.05;54.57;101599.81;5076754;28;19938;-68
2022/01/23 10:25:51;;;;;;;;;;;;;;;2.08;54.12;101592.66;5109778;28;19919;-67
2022/01/23 10:28:19;;;;;;;;;;;;;;;2.14;53.87;101600.41;5097259;28;19912;-67
2022/01/23 10:30:50;;;;;;;;;;;;;;;2.14;53.80;101597.75;5100787;28;19958;-68
2022/01/23 10:33:15;;;;;;;;;;;;;;;2.20;52.86;101601.97;5094947;28;19962;-68
2022/01/23 10:35:55;;;;;;;;;;;;;;;2.22;52.96;101590.41;5102306;28;19920;-68
2022/01/23 10:38:21;;;;;;;;;;;;;;;2.26;52.67;101586.72;5112016;28;19912;-68
2022/01/23 10:40:55;;;;;;;;;;;;;;;2.31;52.45;101591.88;5100864;28;19923;-68
2022/01/23 10:48:35;;;;;;;;;;;;;;;2.43;52.14;101602.91;5097862;28;19954;-68
2022/01/23 10:51:12;;;;;;;;;;;;;;;2.54;51.24;101597.25;5099930;27;19926;-68
2022/01/23 10:53:57;;;;;;;;;;;;;;;2.61;50.69;101597.91;5112119;28;19998;-68
2022/01/23 10:56:22;;;;;;;;;;;;;;;2.66;50.32;101595.94;5094665;28;20029;-68
2022/01/23 10:59:05;;;;;;;;;;;;;;;2.70;49.95;101595.78;5114136;28;20014;-68
2022/01/23 11:01:30;;;;;;;;;;;;;;;2.73;50.22;101593.03;5114581;28;19912;-68
2022/01/23 11:04:06;;;;;;;;;;;;;;;2.77;49.91;101591.16;5113724;28;19917;-68
2022/01/23 11:06:31;;;;;;;;;;;;;;;2.79;48.75;101598.13;5113081;27;20363;-68
2022/01/23 11:09:07;;;;;;;;;;;;;;;2.82;48.56;101592.72;5114688;28;19911;-68
2022/01/23 11:11:47;;;;;;;;;;;;;;;2.87;49.76;101595.19;5112186;28;19918;-68
2022/01/23 11:19:43;;;;;;;;;;;;;;;3.05;48.00;101591.88;5108948;27;20422;-68
2022/01/23 11:22:14;;;;;;;;;;;;;;;3.08;47.08;101600.59;5090928;27;19967;-68
2022/01/23 11:24:44;;;;;;;;;;;;;;;3.08;47.36;101594.41;5093213;28;19919;-68
2022/01/23 11:27:10;;;;;;;;;;;;;;;3.10;47.95;101590.81;5095948;28;20012;-69
2022/01/23 11:29:35;;;;;;;;;;;;;;;3.13;47.95;101590.66;5114287;28;20357;-68
2022/01/23 11:32:01;;;;;;;;;;;;;;;3.19;47.38;101581.63;5113895;28;19994;-68
2022/01/23 11:34:27;;;;;;;;;;;;;;;3.28;46.15;101589.22;5098045;27;19916;-68
2022/01/23 11:36:53;;;;;;;;;;;;;;;3.27;46.72;101587.50;5108366;27;19916;-69
2022/01/23 11:39:37;;;;;;;;;;;;;;;3.34;46.15;101581.91;5107898;27;19931;-68
2022/01/23 11:56:23;;;;;;;;;;;;;;;3.38;46.12;101572.91;5099365;28;20280;-68
2022/01/23 11:58:51;;;;;;;;;;;;;;;3.44;45.96;101574.44;5095349;28;19915;-69
2022/01/23 12:01:17;;;;;;;;;;;;;;;3.41;45.61;101578.09;5105151;28;19908;-68
2022/01/23 12:04:01;;;;;;;;;;;;;;;3.42;45.68;101576.31;5096202;27;19916;-69
2022/01/23 12:06:26;;;;;;;;;;;;;;;3.43;45.85;101567.44;5100030;27;19923;-69
2022/01/23 12:08:52;;;;;;;;;;;;;;;3.45;45.75;101560.28;5076758;27;19919;-69
2022/01/23 12:16:52;;;;;;;;;;;;;;;3.56;45.37;101558.06;5113574;28;19946;-69
2022/01/23 12:19:19;;;;;;;;;;;;;;;3.61;45.27;101562.25;5090603;28;19922;-70
2022/01/23 12:21:48;;;;;;;;;;;;;;;3.59;45.83;101555.31;5112886;28;19919;-71
2022/01/23 12:24:15;;;;;;;;;;;;;;;3.60;44.92;101551.72;5103522;28;19912;-71
2022/01/23 12:26:43;;;;;;;;;;;;;;;3.64;44.36;101556.00;5100356;28;19915;-71
2022/01/23 12:29:11;;;;;;;;;;;;;;;3.60;45.06;101549.06;5087293;28;20386;-71
2022/01/23 12:31:37;;;;;;;;;;;;;;;3.69;43.81;101548.72;5086914;28;19934;-69
2022/01/23 12:34:02;;;;;;;;;;;;;;;3.65;44.68;101545.28;5092935;28;19915;-69
2022/01/23 12:36:29;;;;;;;;;;;;;;;3.65;44.93;101536.50;5092922;28;19918;-68
2022/01/23 12:39:18;;;;;;;;;;;;;;;3.64;44.80;101543.56;5092909;28;20390;-69
2022/01/23 12:41:46;;;;;;;;;;;;;;;3.64;45.05;101548.03;5086076;28;19912;-71
2022/01/23 12:44:23;;;;;;;;;;;;;;;3.65;45.37;101550.59;5110313;28;19950;-71
2022/01/23 12:46:59;;;;;;;;;;;;;;;3.63;45.68;101552.47;5113519;28;19951;-71
2022/01/23 12:49:35;;;;;;;;;;;;;;;3.63;45.78;101555.13;5106979;28;19908;-71
2022/01/23 12:52:08;;;;;;;;;;;;;;;3.67;45.26;101562.03;5092961;28;19927;-71
2022/01/23 12:54:35;;;;;;;;;;;;;;;3.66;45.21;101557.66;5092868;28;19912;-71
2022/01/23 12:57:09;;;;;;;;;;;;;;;3.72;44.56;101560.06;5099567;28;19977;-71
2022/01/23 12:59:35;;;;;;;;;;;;;;;3.79;43.97;101556.25;5101474;28;19974;-71
2022/01/23 13:02:07;;;;;;;;;;;;;;;3.74;44.11;101565.31;5092829;28;19951;-71
2022/01/23 13:04:38;;;;;;;;;;;;;;;3.69;44.94;101567.28;5096340;28;19908;-72
2022/01/23 13:07:14;;;;;;;;;;;;;;;3.67;45.39;101572.63;5092752;28;19912;-71
2022/01/23 13:12:14;;;;;;;;;;;;;;;3.71;44.81;101568.09;5102562;27;19969;-69
2022/01/23 13:14:42;;;;;;;;;;;;;;;3.67;45.40;101582.38;5112149;28;19999;-69
2022/01/23 13:30:51;;;;;;;;;;;;;;;3.64;45.35;101564.78;5111197;28;19915;-71
2022/01/23 13:33:21;;;;;;;;;;;;;;;3.64;45.14;101569.25;5093144;28;20324;-72
2022/01/23 13:35:51;;;;;;;;;;;;;;;3.63;45.35;101576.34;5091477;28;19973;-71
2022/01/23 13:38:17;;;;;;;;;;;;;;;3.70;44.66;101571.66;5094365;28;19911;-72
2022/01/23 13:40:44;;;;;;;;;;;;;;;3.61;45.42;101569.38;5094209;28;19972;-71
2022/01/23 13:51:20;;;;;;;;;;;;;;;3.51;44.71;101576.81;5101681;28;19927;-71
2022/01/23 13:59:13;;;;;;;;;;;;;;;3.49;44.79;101569.84;5092061;28;19930;-72
2022/01/23 14:04:35;;;;;;;;;;;;;;;3.53;44.24;101585.59;5084748;28;20398;-71
2022/01/23 14:07:01;;;;;;;;;;;;;;;3.47;44.20;101584.94;5093938;28;19965;-70
2022/01/23 14:09:27;;;;;;;;;;;;;;;3.45;nan;101584.16;5112052;28;19938;-71
2022/01/23 14:11:52;;;;;;;;;;;;;;;3.40;43.80;101578.16;5106142;28;19915;-71
2022/01/23 14:14:19;;;;;;;;;;;;;;;3.39;43.61;101577.28;5092643;28;19920;-72
2022/01/23 14:16:46;;;;;;;;;;;;;;;3.39;44.21;101598.50;5107756;28;20483;-72
2022/01/23 14:19:19;;;;;;;;;;;;;;;3.37;43.48;101583.56;5087705;28;20060;-70
2022/01/23 14:21:47;;;;;;;;;;;;;;;3.33;43.91;101587.28;5096033;28;20177;-71
2022/01/23 14:24:19;;;;;;;;;;;;;;;3.32;44.21;101590.84;5102641;28;20259;-71
2022/01/23 14:26:54;;;;;;;;;;;;;;;3.27;44.34;101595.44;5094723;28;19918;-70
2022/01/23 14:29:22;;;;;;;;;;;;;;;3.31;43.68;101589.09;5098038;28;19911;-69
2022/01/23 14:32:02;;;;;;;;;;;;;;;3.27;43.96;101596.31;5098989;28;19916;-70
2022/01/23 14:34:27;;;;;;;;;;;;;;;3.26;43.70;101599.03;5104067;28;20558;-70
2022/01/23 14:36:58;;;;;;;;;;;;;;;3.21;44.12;101608.94;5099969;28;19912;-70
2022/01/23 14:39:24;;;;;;;;;;;;;;;3.19;44.08;101608.16;5092726;28;20356;-70
2022/01/23 14:41:49;;;;;;;;;;;;;;;3.21;44.15;101615.09;5099820;28;19966;-69
2022/01/23 14:44:23;;;;;;;;;;;;;;;3.17;43.76;101608.19;5102720;28;19911;-69
2022/01/23 14:46:50;;;;;;;;;;;;;;;3.15;43.56;101622.41;5097067;28;19911;-67
2022/01/23 14:49:22;;;;;;;;;;;;;;;3.07;43.60;101611.22;5096346;28;19922;-67
2022/01/23 14:51:47;;;;;;;;;;;;;;;3.06;43.85;101620.13;5103551;28;20383;-68
2022/01/23 14:54:13;;;;;;;;;;;;;;;2.98;44.22;101623.03;5096300;28;19960;-67
2022/01/23 14:56:41;;;;;;;;;;;;;;;2.95;44.38;101623.16;5104012;28;19922;-67
2022/01/23 14:59:08;;;;;;;;;;;;;;;2.93;44.77;101630.28;5103176;28;20011;-67
2022/01/23 15:01:33;;;;;;;;;;;;;;;2.85;44.59;101626.16;5099142;28;19928;-67
2022/01/23 15:04:05;;;;;;;;;;;;;;;2.84;44.66;101627.94;5101790;28;19919;-68
2022/01/23 15:06:31;;;;;;;;;;;;;;;2.80;44.53;101628.97;5084588;27;19920;-68
2022/01/23 15:09:06;;;;;;;;;;;;;;;2.77;44.35;101637.03;5100226;28;19998;-67
2022/01/23 15:11:31;;;;;;;;;;;;;;;2.72;44.68;101632.81;5085448;28;19920;-67
2022/01/23 15:13:57;;;;;;;;;;;;;;;2.68;44.80;101640.03;5095416;27;19927;-68
2022/01/23 15:16:22;;;;;;;;;;;;;;;2.65;45.24;101641.91;5098800;28;19916;-68
2022/01/23 15:18:47;;;;;;;;;;;;;;;2.60;45.01;101636.75;5088635;27;19915;-68
2022/01/23 15:21:13;;;;;;;;;;;;;;;2.54;45.13;101639.59;5098429;28;20260;-68
2022/01/23 15:23:38;;;;;;;;;;;;;;;2.47;45.60;101650.44;5093041;28;19926;-68
2022/01/23 15:26:04;;;;;;;;;;;;;;;2.40;45.81;101652.47;5095237;28;19915;-67
2022/01/23 15:28:29;;;;;;;;;;;;;;;2.33;46.14;101657.06;5095440;27;20014;-69
2022/01/23 15:30:54;;;;;;;;;;;;;;;2.30;46.40;101662.47;5100120;27;19920;-67
2022/01/23 15:33:20;;;;;;;;;;;;;;;2.20;46.24;101654.91;5099725;28;19919;-68
2022/01/23 15:35:47;;;;;;;;;;;;;;;2.10;46.50;101650.81;5100168;27;19920;-68
2022/01/23 15:38:16;;;;;;;;;;;;;;;2.03;46.72;101658.06;5085025;28;19968;-68
2022/01/23 15:40:42;;;;;;;;;;;;;;;1.95;47.49;101656.59;5101616;28;20452;-68
2022/01/23 15:43:07;;;;;;;;;;;;;;;1.86;47.25;101657.75;5097847;28;19915;-68
2022/01/23 15:45:33;;;;;;;;;;;;;;;1.81;47.92;101669.38;5103789;28;19912;-67
2022/01/23 15:47:58;;;;;;;;;;;;;;;1.75;47.99;101672.22;5100835;28;19919;-68
2022/01/23 15:50:23;;;;;;;;;;;;;;;1.74;48.38;101676.63;5099402;28;19959;-68
2022/01/23 15:52:49;;;;;;;;;;;;;;;1.68;48.42;101683.88;5097556;27;19939;-68
2022/01/23 15:55:15;;;;;;;;;;;;;;;1.60;48.69;101675.28;5100772;28;19937;-68
2022/01/23 15:57:40;;;;;;;;;;;;;;;1.52;49.07;101680.81;5101015;28;19923;-68
2022/01/23 16:00:07;;;;;;;;;;;;;;;1.46;49.34;101686.28;5078455;28;19923;-67
2022/01/23 16:02:33;;;;;;;;;;;;;;;1.37;49.38;101685.69;5100975;27;19978;-68
2022/01/23 16:04:59;;;;;;;;;;;;;;;1.30;49.36;101687.66;5103340;28;20015;-68
2022/01/23 16:07:25;;;;;;;;;;;;;;;1.25;50.07;101692.19;5099450;28;20378;-68
2022/01/23 16:09:51;;;;;;;;;;;;;;;1.18;49.72;101687.97;5095822;27;19912;-68